Time;durP1;ratioP1;P1;durP2;ratioP2;P2;SDS_P1;SDS_P2;PMS_P1;PMS_P2;Temp;Humidity;BMP_temperature;BMP_pressure;BME280_temperature;BME280_humidity;BME280_pressure;Samples;Min_cycle;Max_cycle;Signal;HPM_P1;HPM_P2
2022/03/14 00:01:29;;;;;;;24.45;13.68;;;;;;;2.65;66.09;99874.59;5021783;28;20443;-94
2022/03/14 00:03:58;;;;;;;29.95;15.63;;;;;;;2.58;67.24;99877.03;5022182;28;20049;-95
2022/03/14 00:06:26;;;;;;;27.45;15.90;;;;;;;2.63;66.57;99902.53;5021632;28;20046;-96
2022/03/14 00:08:57;;;;;;;26.95;15.13;;;;;;;2.60;67.02;99893.69;5021345;28;20132;-93
2022/03/14 00:11:26;;;;;;;28.00;14.63;;;;;;;2.65;67.25;99882.47;5021196;28;20041;-93
2022/03/14 00:13:54;;;;;;;26.67;13.98;;;;;;;2.60;67.43;99878.84;5024529;28;20049;-94
2022/03/14 00:16:23;;;;;;;26.10;13.75;;;;;;;2.58;67.74;99877.03;5024437;28;20141;-94
2022/03/14 00:18:51;;;;;;;23.25;13.20;;;;;;;2.52;66.88;99895.28;5024990;28;20056;-95
2022/03/14 00:21:19;;;;;;;20.10;12.48;;;;;;;2.42;65.56;99891.53;5025775;28;20373;-95
2022/03/14 00:23:46;;;;;;;19.35;12.05;;;;;;;2.68;66.41;99928.91;5024990;28;20042;-95
2022/03/14 00:26:12;;;;;;;21.40;11.63;;;;;;;2.55;66.24;99900.59;5023547;28;20053;-95
2022/03/14 00:28:39;;;;;;;24.83;12.57;;;;;;;2.63;65.77;99910.44;5025053;28;20582;-95
2022/03/14 00:31:05;;;;;;;21.17;12.15;;;;;;;2.57;65.78;99896.28;5026154;28;20053;-94
2022/03/14 00:33:31;;;;;;;24.77;11.95;;;;;;;2.60;65.59;99897.25;5025380;28;20453;-94
2022/03/14 00:35:57;;;;;;;23.85;12.23;;;;;;;2.63;65.75;99896.41;5025182;28;20069;-94
2022/03/14 00:38:25;;;;;;;22.05;12.70;;;;;;;2.67;66.63;99890.38;5025296;28;20131;-94
2022/03/14 00:40:52;;;;;;;22.45;13.00;;;;;;;2.72;66.92;99895.75;5025985;28;20042;-93
2022/03/14 00:43:18;;;;;;;21.27;12.27;;;;;;;2.68;66.78;99900.91;5025245;28;20056;-93
2022/03/14 00:45:45;;;;;;;21.38;12.75;;;;;;;2.63;65.99;99905.16;5025088;28;20054;-94
2022/03/14 00:48:11;;;;;;;20.73;11.88;;;;;;;2.57;66.42;99894.53;5024507;28;20045;-94
2022/03/14 00:50:37;;;;;;;21.25;11.68;;;;;;;2.56;66.97;99903.28;5024770;28;20562;-95
2022/03/14 00:53:03;;;;;;;23.67;12.75;;;;;;;2.52;67.75;99901.41;5024737;28;20041;-94
2022/03/14 00:55:29;;;;;;;22.73;11.80;;;;;;;2.52;67.75;99901.41;5024584;28;20049;-94
2022/03/14 00:57:56;;;;;;;27.48;14.43;;;;;;;2.61;67.26;99919.13;5024492;28;20113;-95
2022/03/14 01:00:22;;;;;;;23.33;13.70;;;;;;;2.55;67.69;99909.34;5024052;28;20049;-94
2022/03/14 01:02:50;;;;;;;24.73;13.48;;;;;;;2.62;67.87;99929.69;5024249;28;20050;-94
2022/03/14 01:05:16;;;;;;;28.58;15.20;;;;;;;2.54;69.01;99922.44;5024050;28;20073;-94
2022/03/14 01:07:42;;;;;;;23.30;13.07;;;;;;;2.54;67.92;99922.44;5023703;28;20057;-93
2022/03/14 01:10:08;;;;;;;23.08;12.13;;;;;;;2.59;67.22;99910.31;5023230;28;20050;-94
2022/03/14 01:12:35;;;;;;;22.83;12.32;;;;;;;2.61;68.30;99913.88;5023098;28;20046;-95
2022/03/14 01:15:03;;;;;;;22.52;11.90;;;;;;;2.70;67.03;99929.84;5023506;28;20180;-94
2022/03/14 01:17:29;;;;;;;21.00;11.07;;;;;;;2.58;67.68;99927.81;5023597;28;20046;-94
2022/03/14 01:19:55;;;;;;;19.88;10.13;;;;;;;2.37;66.39;99907.19;5024670;28;20064;-94
2022/03/14 01:22:21;;;;;;;19.20;11.32;;;;;;;2.30;67.71;99914.84;5024314;28;20077;-95
2022/03/14 01:24:47;;;;;;;23.92;11.73;;;;;;;2.20;69.23;99917.28;5023263;28;20400;-94
2022/03/14 01:27:13;;;;;;;20.63;10.85;;;;;;;2.04;69.78;99916.00;5023567;28;20049;-95
2022/03/14 01:29:39;;;;;;;17.52;10.48;;;;;;;1.86;69.97;99915.50;5023577;28;20050;-94
2022/03/14 01:32:07;;;;;;;18.27;9.95;;;;;;;1.75;70.19;99912.59;5022718;28;20069;-93
2022/03/14 01:34:34;;;;;;;19.35;11.05;;;;;;;1.74;70.20;99929.19;5022840;28;20046;-94
2022/03/14 01:37:01;;;;;;;17.85;11.15;;;;;;;1.55;71.76;99909.44;5023075;28;20049;-95
2022/03/14 01:39:27;;;;;;;20.77;12.13;;;;;;;1.71;71.89;99955.31;5023489;28;20046;-95
2022/03/14 01:41:55;;;;;;;24.88;12.10;;;;;;;1.48;71.61;99920.63;5022758;28;20456;-95
2022/03/14 01:44:21;;;;;;;21.55;12.30;;;;;;;1.50;72.30;99941.66;5022545;28;20046;-95
2022/03/14 01:46:47;;;;;;;19.88;11.73;;;;;;;1.42;72.46;99942.28;5022811;28;20061;-93
2022/03/14 01:49:15;;;;;;;21.77;12.07;;;;;;;1.32;73.14;99935.00;5022751;28;20053;-96
2022/03/14 01:51:41;;;;;;;20.75;11.52;;;;;;;1.35;72.46;99924.63;5022673;28;20042;-92
2022/03/14 01:54:08;;;;;;;25.15;12.27;;;;;;;1.33;72.95;99930.69;5022672;28;20073;-94
2022/03/14 01:56:35;;;;;;;22.13;12.82;;;;;;;1.28;73.01;99924.41;5021961;28;20065;-95
2022/03/14 01:59:01;;;;;;;22.38;12.57;;;;;;;1.20;73.28;99922.44;5022932;28;20054;-94
2022/03/14 02:01:28;;;;;;;27.55;14.70;;;;;;;1.13;73.52;99919.59;5022638;28;20125;-94
2022/03/14 02:03:54;;;;;;;27.27;14.93;;;;;;;1.20;73.07;99913.72;5023302;28;20049;-95
2022/03/14 02:06:21;;;;;;;27.63;16.13;;;;;;;1.31;71.84;99899.19;5023453;28;20151;-94
2022/03/14 02:08:47;;;;;;;27.35;16.40;;;;;;;1.22;72.43;99899.81;5022975;28;20132;-94
2022/03/14 02:11:14;;;;;;;23.92;13.25;;;;;;;1.22;72.81;99907.66;5025867;28;20058;-94
2022/03/14 02:13:40;;;;;;;19.40;10.82;;;;;;;1.36;70.64;99909.78;5023519;28;20499;-95
2022/03/14 02:16:06;;;;;;;24.27;14.25;;;;;;;1.46;71.99;99919.69;5023658;28;20057;-94
2022/03/14 02:18:32;;;;;;;24.60;13.52;;;;;;;1.32;72.43;99908.78;5023647;28;20046;-94
2022/03/14 02:20:59;;;;;;;23.67;13.45;;;;;;;1.25;72.37;99914.72;5022147;28;20498;-96
2022/03/14 02:23:25;;;;;;;21.23;12.88;;;;;;;1.25;73.82;99938.31;5022474;28;20058;-94
2022/03/14 02:25:53;;;;;;;22.35;12.85;;;;;;;1.00;75.01;99903.53;5022215;28;20050;-94
2022/03/14 02:28:22;;;;;;;26.83;14.15;;;;;;;1.03;75.44;99935.06;5023706;28;20171;-94
2022/03/14 02:30:48;;;;;;;21.90;13.00;;;;;;;0.91;75.46;99908.50;5023268;28;20038;-96
2022/03/14 02:33:14;;;;;;;19.20;12.25;;;;;;;0.99;74.90;99920.09;5022726;28;20049;-94
2022/03/14 02:35:41;;;;;;;17.38;9.57;;;;;;;0.91;74.35;99911.13;5021954;28;20113;-94
2022/03/14 02:38:14;;;;;;;19.90;10.27;;;;;;;0.93;74.54;99908.53;5023130;28;20135;-93
2022/03/14 02:40:41;;;;;;;17.85;10.75;;;;;;;0.90;74.90;99906.72;5022500;28;20076;-93
2022/03/14 02:43:07;;;;;;;19.35;10.20;;;;;;;0.98;75.12;99910.47;5022197;28;20088;-94
2022/03/14 02:45:33;;;;;;;16.77;9.95;;;;;;;1.08;75.68;99913.34;5023362;28;20499;-95
2022/03/14 02:47:59;;;;;;;18.35;10.35;;;;;;;1.14;75.14;99922.28;5022211;28;20053;-96
2022/03/14 02:50:26;;;;;;;19.77;9.75;;;;;;;1.31;73.67;99920.13;5022408;28;20053;-94
2022/03/14 02:52:53;;;;;;;15.95;9.60;;;;;;;1.54;72.08;99918.19;5021895;28;20088;-94
2022/03/14 02:55:23;;;;;;;19.88;11.18;;;;;;;1.65;72.46;99928.97;5022292;28;20049;-94
2022/03/14 02:57:49;;;;;;;21.65;11.02;;;;;;;1.73;72.75;99935.28;5021024;28;20104;-95
2022/03/14 03:00:15;;;;;;;19.27;10.02;;;;;;;1.96;70.70;99967.38;5022500;28;20069;-94
2022/03/14 03:02:42;;;;;;;19.73;11.05;;;;;;;1.88;70.70;99940.03;5023632;28;20057;-95
2022/03/14 03:05:09;;;;;;;20.92;11.43;;;;;;;1.97;71.44;99939.41;5022541;28;20100;-95
2022/03/14 03:07:36;;;;;;;17.85;10.07;;;;;;;1.99;70.03;99946.47;5022344;28;20042;-94
2022/03/14 03:10:04;;;;;;;18.13;10.35;;;;;;;2.45;67.11;99984.41;5022268;28;20057;-94
2022/03/14 03:12:37;;;;;;;18.90;9.38;;;;;;;2.29;66.79;99937.59;5022813;28;20514;-94
2022/03/14 03:15:04;;;;;;;16.80;10.00;;;;;;;2.41;67.01;99960.66;5022763;28;20113;-93
2022/03/14 03:17:30;;;;;;;17.30;10.65;;;;;;;2.47;67.10;99969.56;5021373;28;20050;-94
2022/03/14 03:19:56;;;;;;;19.67;10.32;;;;;;;2.38;66.42;99943.06;5021548;28;20053;-94
2022/03/14 03:22:25;;;;;;;17.98;10.20;;;;;;;2.34;66.87;99949.13;5024093;28;20065;-94
2022/03/14 03:24:51;;;;;;;18.98;10.32;;;;;;;2.40;67.07;99969.38;5022263;28;20056;-94
2022/03/14 03:27:17;;;;;;;16.88;10.38;;;;;;;2.40;67.62;99974.63;5020796;28;20054;-94
2022/03/14 03:29:44;;;;;;;21.17;10.68;;;;;;;2.19;67.86;99952.25;5021971;28;20057;-95
2022/03/14 03:32:10;;;;;;;19.58;10.68;;;;;;;2.10;68.74;99956.34;5022505;28;20137;-95
2022/03/14 03:34:36;;;;;;;19.42;10.65;;;;;;;2.16;69.38;99988.00;5022632;28;20110;-95
2022/03/14 03:37:02;;;;;;;19.15;11.20;;;;;;;1.82;70.03;99959.16;5022073;28;20050;-93
2022/03/14 03:39:30;;;;;;;21.85;11.82;;;;;;;1.77;70.98;99999.19;5022681;28;20046;-94
2022/03/14 03:41:56;;;;;;;17.50;10.35;;;;;;;1.59;71.49;99981.22;5023869;28;20042;-95
2022/03/14 03:44:22;;;;;;;22.73;10.88;;;;;;;1.59;71.77;99982.09;5021332;28;20093;-95
2022/03/14 03:46:50;;;;;;;22.70;12.38;;;;;;;1.64;72.21;99996.22;5024145;28;20050;-93
2022/03/14 03:49:16;;;;;;;21.85;11.73;;;;;;;1.50;72.33;99987.09;5025886;28;20399;-94
2022/03/14 03:51:42;;;;;;;19.67;11.05;;;;;;;1.64;72.22;100032.94;5025928;28;20049;-94
2022/03/14 03:54:08;;;;;;;17.17;9.48;;;;;;;1.49;73.19;99997.53;5025036;28;20046;-93
2022/03/14 03:56:38;;;;;;;22.52;10.48;;;;;;;1.52;72.76;99985.41;5027891;28;20056;-94
2022/03/14 03:59:04;;;;;;;20.17;10.32;;;;;;;1.46;72.96;99994.81;5029440;28;20060;-94
2022/03/14 04:01:31;;;;;;;19.55;10.77;;;;;;;1.47;73.87;100022.78;5029369;28;20038;-94
2022/03/14 04:04:00;;;;;;;22.85;12.32;;;;;;;1.48;73.98;100049.06;5029293;28;20443;-93
2022/03/14 04:06:30;;;;;;;21.02;12.05;;;;;;;1.20;74.49;100016.78;5028835;28;20041;-94
2022/03/14 04:08:56;;;;;;;17.60;10.00;;;;;;;1.13;75.18;100012.19;5029641;28;20046;-95
2022/03/14 04:11:23;;;;;;;19.45;10.43;;;;;;;1.13;74.79;100021.75;5028811;28;20049;-94
2022/03/14 04:13:51;;;;;;;21.23;10.82;;;;;;;1.18;73.57;100028.94;5027710;28;20042;-94
2022/03/14 04:16:18;;;;;;;23.20;11.05;;;;;;;1.13;72.81;100011.28;5027261;28;20050;-94
2022/03/14 04:18:44;;;;;;;18.58;10.43;;;;;;;1.15;73.32;100018.38;5027433;28;20507;-94
2022/03/14 04:21:13;;;;;;;18.55;10.18;;;;;;;1.12;72.98;100023.50;5029125;28;20046;-94
2022/03/14 04:23:39;;;;;;;18.08;10.15;;;;;;;1.11;73.36;100018.25;5028658;28;20038;-93
2022/03/14 04:26:05;;;;;;;16.33;9.60;;;;;;;1.12;73.99;100015.66;5028413;28;20082;-94
2022/03/14 04:28:31;;;;;;;19.45;10.13;;;;;;;1.08;74.40;100023.38;5028530;28;20049;-94
2022/03/14 04:30:58;;;;;;;16.80;10.15;;;;;;;1.18;74.35;100044.66;5028949;28;20061;-94
2022/03/14 04:33:24;;;;;;;19.77;10.02;;;;;;;1.08;75.15;100033.84;5028732;28;20061;-94
2022/03/14 04:35:50;;;;;;;19.45;10.48;;;;;;;0.97;76.43;100018.66;5029184;28;20046;-94
2022/03/14 04:38:18;;;;;;;17.75;10.30;;;;;;;1.10;75.02;100034.78;5028863;28;20054;-93
2022/03/14 04:40:44;;;;;;;23.25;11.73;;;;;;;1.07;75.56;100018.97;5028846;28;20053;-93
2022/03/14 04:43:10;;;;;;;22.90;11.13;;;;;;;1.14;76.33;100026.19;5028743;28;20050;-93
2022/03/14 04:45:38;;;;;;;20.20;10.25;;;;;;;1.21;73.99;100018.56;5029000;28;20050;-94
2022/03/14 04:48:06;;;;;;;20.98;10.13;;;;;;;1.49;71.56;100018.50;5027413;28;20046;-93
2022/03/14 04:50:32;;;;;;;19.27;11.35;;;;;;;1.85;70.80;100058.00;5022816;28;20045;-94
2022/03/14 04:52:58;;;;;;;17.95;10.05;;;;;;;1.65;70.63;100025.97;5024399;28;20072;-93
2022/03/14 04:55:26;;;;;;;20.33;11.82;;;;;;;1.62;70.42;100020.63;5022665;28;20046;-93
2022/03/14 04:57:52;;;;;;;20.88;10.50;;;;;;;1.78;70.20;100049.06;5023493;28;20050;-92
2022/03/14 05:00:18;;;;;;;18.75;11.45;;;;;;;1.47;70.83;100026.31;5022150;28;20078;-93
2022/03/14 05:02:44;;;;;;;22.85;11.20;;;;;;;1.37;71.35;100030.41;5020813;28;20049;-93
2022/03/14 05:05:11;;;;;;;21.50;10.75;;;;;;;1.40;71.22;100027.84;5022345;28;20042;-95
2022/03/14 05:07:37;;;;;;;22.50;11.55;;;;;;;1.54;71.20;100024.75;5023398;28;20048;-94
2022/03/14 05:10:06;;;;;;;21.30;10.98;;;;;;;1.76;70.23;100035.03;5023771;28;20050;-93
2022/03/14 05:12:34;;;;;;;22.37;10.67;;;;;;;2.05;69.69;100059.44;5025489;28;20054;-94
2022/03/14 05:15:00;;;;;;;18.42;10.38;;;;;;;1.92;69.53;100041.59;5025188;28;20061;-94
2022/03/14 05:17:27;;;;;;;20.17;9.88;;;;;;;1.94;69.47;100041.63;5026794;28;20049;-94
2022/03/14 05:19:53;;;;;;;21.38;10.05;;;;;;;1.98;68.61;100047.00;5026149;28;20050;-94
2022/03/14 05:22:20;;;;;;;20.30;10.02;;;;;;;2.00;68.91;100042.69;5025481;28;20049;-93
2022/03/14 05:24:46;;;;;;;19.38;10.27;;;;;;;1.98;69.01;100047.00;5024730;28;20053;-94
2022/03/14 05:27:12;;;;;;;19.13;10.55;;;;;;;1.98;69.29;100046.13;5026232;28;20053;-95
2022/03/14 05:29:40;;;;;;;21.00;10.57;;;;;;;2.04;68.89;100051.56;5027611;28;20046;-93
2022/03/14 05:32:08;;;;;;;22.08;11.70;;;;;;;2.09;68.91;100064.78;5026085;28;20042;-94
2022/03/14 05:34:35;;;;;;;18.13;9.80;;;;;;;2.28;68.94;100101.19;5025184;28;20487;-94
2022/03/14 05:37:01;;;;;;;21.85;11.18;;;;;;;2.13;69.04;100071.91;5024887;28;20053;-94
2022/03/14 05:39:27;;;;;;;23.58;11.68;;;;;;;2.16;69.04;100071.97;5026512;28;20046;-94
2022/03/14 05:41:53;;;;;;;24.42;12.45;;;;;;;2.31;69.76;100092.50;5025349;28;20057;-93
2022/03/14 05:44:20;;;;;;;22.27;12.20;;;;;;;2.20;70.24;100073.84;5025666;28;20049;-93
2022/03/14 05:46:47;;;;;;;21.10;11.80;;;;;;;2.15;70.64;100075.47;5026901;28;20093;-93
2022/03/14 05:49:13;;;;;;;17.08;9.98;;;;;;;2.25;69.87;100073.09;5026246;28;20046;-95
2022/03/14 05:51:39;;;;;;;21.20;11.43;;;;;;;2.33;69.08;100075.06;5026065;28;20117;-94
2022/03/14 05:54:05;;;;;;;21.10;10.57;;;;;;;2.39;69.14;100080.50;5026378;28;20042;-94
2022/03/14 05:56:31;;;;;;;21.55;11.20;;;;;;;2.50;69.82;100079.03;5025083;28;20545;-94
2022/03/14 05:58:59;;;;;;;25.67;13.23;;;;;;;2.53;69.45;100080.84;5025080;28;20113;-94
2022/03/14 06:01:25;;;;;;;36.65;18.38;;;;;;;2.53;69.14;100079.09;5026250;28;20392;-94
2022/03/14 06:03:53;;;;;;;22.45;10.88;;;;;;;2.71;67.09;100085.69;5024337;28;20042;-93
2022/03/14 06:06:19;;;;;;;21.15;11.85;;;;;;;2.94;66.22;100092.41;5024716;28;20053;-94
2022/03/14 06:08:45;;;;;;;21.52;12.10;;;;;;;2.96;65.76;100082.81;5025576;28;20057;-94
2022/03/14 06:11:14;;;;;;;22.38;11.68;;;;;;;3.26;65.55;100134.38;5022505;28;20049;-94
2022/03/14 06:13:41;;;;;;;23.70;11.60;;;;;;;3.29;65.25;100095.88;5025102;28;20042;-93
2022/03/14 06:16:07;;;;;;;25.00;11.73;;;;;;;3.57;64.69;100122.81;5024791;28;20104;-95
2022/03/14 06:18:33;;;;;;;24.48;11.82;;;;;;;3.52;63.99;100090.28;5023579;28;20045;-95
2022/03/14 06:21:01;;;;;;;22.95;11.77;;;;;;;3.57;63.80;100095.63;5020785;28;20081;-94
2022/03/14 06:23:27;;;;;;;23.33;12.35;;;;;;;3.77;63.43;100114.47;5022424;28;20073;-91
2022/03/14 06:25:54;;;;;;;20.77;11.35;;;;;;;3.97;63.17;100128.97;5022601;28;20049;-93
2022/03/14 06:28:21;;;;;;;24.38;11.32;;;;;;;3.83;63.28;100094.44;5023048;28;20077;-94
2022/03/14 06:30:47;;;;;;;20.02;11.40;;;;;;;4.01;62.25;100093.97;5022593;28;20052;-93
2022/03/14 06:33:13;;;;;;;25.27;12.93;;;;;;;4.28;63.21;100137.50;5022281;28;20045;-94
2022/03/14 06:35:40;;;;;;;26.33;13.32;;;;;;;4.08;63.64;100098.50;5022249;28;20061;-95
2022/03/14 06:38:10;;;;;;;23.67;12.02;;;;;;;4.05;63.61;100100.16;5022692;28;20045;-95
2022/03/14 06:40:36;;;;;;;23.35;12.60;;;;;;;4.17;63.66;100108.31;5023623;28;20069;-94
2022/03/14 06:43:02;;;;;;;23.60;12.05;;;;;;;4.23;62.05;100112.81;5024620;28;20503;-94
2022/03/14 06:45:29;;;;;;;24.75;13.43;;;;;;;4.09;63.55;100123.06;5022635;28;20499;-95
2022/03/14 06:47:56;;;;;;;23.65;13.20;;;;;;;3.87;63.29;100113.84;5022043;28;20070;-93
2022/03/14 06:50:23;;;;;;;25.30;14.40;;;;;;;3.97;62.81;100112.28;5021746;28;20100;-95
2022/03/14 06:52:49;;;;;;;31.98;13.30;;;;;;;4.32;62.90;100145.50;5024746;28;20503;-93
2022/03/14 06:55:17;;;;;;;22.95;12.20;;;;;;;4.25;62.72;100124.25;5026043;28;20037;-94
2022/03/14 06:57:43;;;;;;;26.13;12.80;;;;;;;4.32;62.69;100124.44;5024474;28;20140;-93
2022/03/14 07:00:11;;;;;;;24.55;12.68;;;;;;;4.23;62.11;100124.25;5022959;28;20069;-93
2022/03/14 07:02:39;;;;;;;25.02;13.00;;;;;;;4.31;61.98;100129.66;5022598;28;20082;-94
2022/03/14 07:05:10;;;;;;;24.60;12.80;;;;;;;4.41;61.76;100131.63;5022954;28;20049;-94
2022/03/14 07:07:36;;;;;;;25.13;12.30;;;;;;;4.80;61.19;100156.06;5025024;28;20076;-94
2022/03/14 07:10:02;;;;;;;25.38;13.38;;;;;;;5.22;60.69;100161.19;5024391;28;20061;-94
2022/03/14 07:12:30;;;;;;;26.75;15.35;;;;;;;5.45;59.64;100143.13;5022440;28;20070;-94
2022/03/14 07:14:56;;;;;;;31.13;14.98;;;;;;;5.95;59.20;100161.47;5024556;28;20042;-93
2022/03/14 07:17:22;;;;;;;27.00;14.32;;;;;;;6.01;58.67;100168.59;5020193;28;20072;-94
2022/03/14 07:19:49;;;;;;;38.55;15.00;;;;;;;6.23;57.88;100172.41;5021394;28;20038;-95
2022/03/14 07:22:19;;;;;;;26.23;13.15;;;;;;;6.10;58.28;100147.59;5021939;28;20048;-94
2022/03/14 07:24:45;;;;;;;24.45;13.07;;;;;;;6.14;57.07;100156.47;5019903;28;20049;-94
2022/03/14 07:27:12;;;;;;;23.65;12.98;;;;;;;5.96;56.95;100167.63;5021523;28;20050;-94
2022/03/14 07:29:39;;;;;;;23.35;13.60;;;;;;;5.85;57.10;100154.25;5025015;28;20053;-95
2022/03/14 07:32:06;;;;;;;25.55;13.05;;;;;;;5.94;57.16;100154.44;5023606;28;20061;-94
2022/03/14 07:34:33;;;;;;;24.85;13.68;;;;;;;5.85;57.08;100156.88;5024605;28;20168;-94
2022/03/14 07:36:59;;;;;;;26.58;14.50;;;;;;;5.81;57.59;100157.72;5024798;28;20069;-95
2022/03/14 07:39:25;;;;;;;26.85;13.07;;;;;;;5.88;57.42;100171.91;5025330;28;20053;-94
2022/03/14 07:41:51;;;;;;;27.25;14.15;;;;;;;5.85;58.00;100177.13;5024981;28;20050;-94
2022/03/14 07:44:17;;;;;;;27.33;15.02;;;;;;;5.92;59.09;100177.25;5024751;28;20411;-94
2022/03/14 07:46:44;;;;;;;29.88;13.95;;;;;;;5.72;58.76;100155.81;5024259;28;20053;-94
2022/03/14 07:49:10;;;;;;;27.52;14.02;;;;;;;6.09;57.53;100151.09;5021947;28;20074;-95
2022/03/14 07:51:37;;;;;;;26.58;13.80;;;;;;;6.24;57.99;100155.69;5022164;28;20096;-94
2022/03/14 07:54:04;;;;;;;25.90;13.65;;;;;;;6.71;55.24;100170.34;5020915;28;20042;-94
2022/03/14 07:56:30;;;;;;;22.58;12.48;;;;;;;6.85;55.08;100176.66;5022409;28;20045;-92
2022/03/14 07:58:56;;;;;;;24.58;13.23;;;;;;;6.93;54.67;100164.41;5024064;28;20053;-95
2022/03/14 08:01:22;;;;;;;24.92;13.38;;;;;;;7.19;53.53;100190.22;5020922;28;20103;-94
2022/03/14 08:03:50;;;;;;;24.50;13.93;;;;;;;7.37;54.15;100186.84;5022139;28;20045;-95
2022/03/14 08:06:22;;;;;;;31.73;14.20;;;;;;;7.50;53.95;100193.13;5020787;28;20054;-95
2022/03/14 08:08:49;;;;;;;33.13;16.00;;;;;;;7.49;53.36;100160.50;5024773;28;20054;-95
2022/03/14 08:11:15;;;;;;;22.33;13.30;;;;;;;7.79;52.12;100169.53;5023944;28;20117;-94
2022/03/14 08:13:42;;;;;;;25.48;13.82;;;;;;;7.93;51.89;100167.84;5024349;28;20206;-95
2022/03/14 08:16:08;;;;;;;24.70;14.20;;;;;;;8.22;51.57;100188.34;5023152;28;20073;-94
2022/03/14 08:18:34;;;;;;;31.58;16.35;;;;;;;8.18;52.15;100160.06;5020247;28;20046;-94
2022/03/14 08:21:02;;;;;;;29.65;15.55;;;;;;;8.40;53.42;100199.06;5019946;28;20046;-95
2022/03/14 08:23:28;;;;;;;165.35;65.07;;;;;;;8.29;52.34;100165.41;5019971;28;20089;-96
2022/03/14 08:25:54;;;;;;;122.88;53.00;;;;;;;8.18;52.86;100162.69;5022946;28;20054;-95
2022/03/14 08:28:21;;;;;;;41.35;21.10;;;;;;;8.20;52.19;100179.50;5024357;28;20050;-96
2022/03/14 08:30:48;;;;;;;28.65;16.95;;;;;;;8.18;52.75;100186.56;5024532;28;20053;-96
2022/03/14 08:33:15;;;;;;;38.15;16.42;;;;;;;8.40;52.71;100172.53;5023502;28;20071;-96
2022/03/14 08:35:41;;;;;;;24.55;13.60;;;;;;;8.71;51.40;100172.66;5024515;28;20081;-95
2022/03/14 08:38:08;;;;;;;26.02;13.75;;;;;;;9.04;48.82;100160.34;5023402;28;20088;-96
2022/03/14 08:40:35;;;;;;;28.52;14.07;;;;;;;9.23;48.25;100162.13;5026267;28;20084;-94
2022/03/14 08:43:00;;;;;;;23.77;13.05;;;;;;;9.56;48.96;100186.91;5023871;28;20045;-95
2022/03/14 08:45:27;;;;;;;27.70;15.15;;;;;;;9.51;50.04;100193.13;5026280;28;20041;-95
2022/03/14 08:47:53;;;;;;;24.40;13.75;;;;;;;9.69;48.98;100169.19;5023949;28;20046;-94
2022/03/14 08:50:19;;;;;;;33.40;16.08;;;;;;;9.88;47.95;100165.63;5023856;28;20089;-95
2022/03/14 08:52:45;;;;;;;25.05;13.77;;;;;;;9.94;48.37;100183.34;5022938;28;20042;-95
2022/03/14 08:55:13;;;;;;;27.20;14.68;;;;;;;10.03;47.31;100188.63;5021318;28;20054;-94
2022/03/14 08:57:40;;;;;;;24.48;14.02;;;;;;;10.17;46.36;100179.75;5021609;28;20049;-95
2022/03/14 09:00:07;;;;;;;21.95;12.85;;;;;;;10.37;45.43;100187.72;5002409;28;20469;-93
2022/03/14 09:02:34;;;;;;;25.08;13.90;;;;;;;10.47;45.47;100179.69;5006065;28;20049;-94
2022/03/14 09:05:00;;;;;;;24.88;11.70;;;;;;;10.44;45.41;100178.81;5004855;28;20042;-96
2022/03/14 09:07:26;;;;;;;21.90;11.30;;;;;;;10.69;44.27;100183.13;5003123;28;20373;-95
2022/03/14 09:09:53;;;;;;;18.33;11.38;;;;;;;10.93;43.70;100193.66;5004643;28;20042;-95
2022/03/14 09:12:21;;;;;;;22.15;12.25;;;;;;;10.83;43.60;100190.16;5003561;28;20074;-95
2022/03/14 09:14:47;;;;;;;19.45;11.60;;;;;;;11.09;43.21;100190.00;5003835;28;20050;-96
2022/03/14 09:17:13;;;;;;;30.60;11.68;;;;;;;11.04;42.28;100176.72;5003238;28;20055;-95
2022/03/14 09:19:40;;;;;;;19.67;11.00;;;;;;;10.98;41.92;100187.41;5021287;28;20074;-96
2022/03/14 09:22:09;;;;;;;24.30;11.95;;;;;;;11.20;42.28;100185.50;5009749;28;20574;-95
2022/03/14 09:24:36;;;;;;;20.48;12.23;;;;;;;11.25;42.11;100193.44;5007007;28;20101;-96
2022/03/14 09:27:02;;;;;;;25.15;12.90;;;;;;;11.32;42.73;100176.56;5006230;28;20515;-95
2022/03/14 09:29:30;;;;;;;20.52;12.18;;;;;;;11.67;42.59;100221.53;5003879;28;20047;-94
2022/03/14 09:31:56;;;;;;;20.33;11.73;;;;;;;11.57;41.84;100187.00;5006560;28;20078;-96
2022/03/14 09:34:22;;;;;;;20.75;12.02;;;;;;;11.66;41.58;100205.56;5003446;28;20531;-95
2022/03/14 09:36:48;;;;;;;20.90;12.35;;;;;;;11.71;42.17;100206.44;5005641;28;20080;-96
2022/03/14 09:39:15;;;;;;;19.75;11.15;;;;;;;11.69;41.77;100190.44;5004528;28;20050;-95
2022/03/14 09:41:42;;;;;;;19.38;10.77;;;;;;;11.79;41.72;100195.69;5001655;28;20111;-96
2022/03/14 09:44:09;;;;;;;20.17;11.65;;;;;;;11.85;41.84;100192.97;5004726;28;20121;-96
2022/03/14 09:46:39;;;;;;;21.35;11.23;;;;;;;11.87;41.22;100201.84;5016433;28;20034;-95
2022/03/14 09:49:09;;;;;;;20.48;12.02;;;;;;;11.94;41.10;100190.22;5024894;28;20042;-96
2022/03/14 09:51:38;;;;;;;23.10;12.40;;;;;;;11.87;41.56;100196.50;5025423;28;20041;-95
2022/03/14 09:54:05;;;;;;;21.70;11.15;;;;;;;12.02;41.08;100203.50;5025943;28;20050;-96
2022/03/14 09:56:31;;;;;;;19.58;11.40;;;;;;;12.12;41.03;100199.81;5025268;28;20057;-95
2022/03/14 09:58:59;;;;;;;24.10;10.63;;;;;;;12.27;41.14;100191.69;5017594;28;20054;-95
2022/03/14 10:01:26;;;;;;;19.30;11.40;;;;;;;12.45;39.88;100206.59;5005868;28;20077;-94
2022/03/14 10:03:54;;;;;;;18.58;9.95;;;;;;;12.58;38.94;100214.41;5005717;28;20046;-95
2022/03/14 10:06:20;;;;;;;19.23;10.70;;;;;;;12.51;39.91;100179.84;5004464;28;20055;-96
2022/03/14 10:08:46;;;;;;;19.40;10.63;;;;;;;12.67;38.82;100196.53;4995315;28;20057;-96
2022/03/14 10:11:13;;;;;;;20.17;10.98;;;;;;;12.69;39.00;100168.03;5024104;28;20054;-95
2022/03/14 10:13:39;;;;;;;19.52;11.07;;;;;;;12.77;38.91;100161.69;5024024;28;20068;-96
2022/03/14 10:16:06;;;;;;;18.30;10.93;;;;;;;12.88;38.39;100170.44;5016639;28;20046;-96
2022/03/14 10:18:36;;;;;;;18.15;10.63;;;;;;;12.95;37.68;100174.81;5011588;28;20047;-96
2022/03/14 10:21:06;;;;;;;17.60;11.10;;;;;;;12.88;38.85;100167.75;5004346;28;20112;-95
2022/03/14 10:23:35;;;;;;;24.30;12.85;;;;;;;12.79;39.57;100160.75;5004876;28;20112;-96
2022/03/14 10:26:01;;;;;;;20.95;12.07;;;;;;;13.12;40.13;100174.56;5006389;28;20392;-92
2022/03/14 10:28:31;;;;;;;24.40;11.70;;;;;;;13.23;39.67;100179.72;5004294;28;20053;-95
2022/03/14 10:31:00;;;;;;;21.85;11.60;;;;;;;13.31;39.12;100165.38;5003570;28;20118;-95
2022/03/14 10:33:30;;;;;;;22.42;12.18;;;;;;;13.31;38.62;100153.81;5001049;28;20046;-95
2022/03/14 10:35:57;;;;;;;23.30;12.43;;;;;;;13.39;38.90;100151.91;4999580;28;20104;-94
2022/03/14 10:38:25;;;;;;;19.50;11.63;;;;;;;13.44;38.82;100154.50;4999859;28;20078;-94
2022/03/14 10:40:51;;;;;;;23.40;12.85;;;;;;;13.46;38.86;100150.88;5001876;28;20042;-95
2022/03/14 10:43:22;;;;;;;22.13;11.93;;;;;;;13.49;38.75;100161.53;5001612;28;20049;-96
2022/03/14 10:45:48;;;;;;;22.05;11.85;;;;;;;13.30;37.71;100144.91;5000853;28;20042;-94
2022/03/14 10:48:15;;;;;;;18.90;12.38;;;;;;;13.26;37.29;100144.97;5004473;28;20046;-96
2022/03/14 10:50:42;;;;;;;20.10;11.68;;;;;;;13.35;39.27;100167.09;5014971;28;20050;-95
2022/03/14 10:53:10;;;;;;;21.65;12.15;;;;;;;13.40;37.64;100145.63;5005516;28;20073;-96
2022/03/14 10:55:40;;;;;;;22.45;12.05;;;;;;;13.49;37.70;100150.84;5001145;28;20042;-94
2022/03/14 10:58:11;;;;;;;22.60;12.40;;;;;;;13.56;38.01;100146.28;5013992;28;20050;-95
2022/03/14 11:00:51;;;;;;;20.80;11.27;;;;;;;13.61;36.90;100143.53;5020545;28;20049;-95
2022/03/14 11:03:22;;;;;;;23.65;12.18;;;;;;;13.55;37.35;100148.06;5018305;28;20137;-95
2022/03/14 11:05:48;;;;;;;20.42;12.02;;;;;;;13.71;37.71;100161.16;5020801;28;20038;-93
2022/03/14 11:08:26;;;;;;;21.42;11.98;;;;;;;13.78;37.12;100162.81;5020917;28;20048;-95
2022/03/14 11:10:53;;;;;;;20.02;11.80;;;;;;;13.80;36.02;100165.47;5018490;28;20136;-96
2022/03/14 11:13:19;;;;;;;21.15;12.25;;;;;;;13.52;35.71;100141.88;5016449;28;20045;-95
2022/03/14 11:15:46;;;;;;;17.92;11.43;;;;;;;13.54;36.19;100145.41;5021212;28;20088;-96
2022/03/14 11:18:12;;;;;;;19.67;10.77;;;;;;;13.41;37.00;100130.50;5018817;28;20453;-96